Terminal Aerodrome Forecast
Issued by NWS

Home | Current Version | Previous Version | Text Only | Print | Product List | Glossary Off
Versions: 1 2 3 4 5 6 7 8 9 10 11 12 13 14

000
FTUS43 KMPX 262339
TAFRWF
TAF
KRWF 262339Z 2700/2724 13006KT P6SM SCT100 BKN250
     FM271500 15010G16KT P6SM SCT050 BKN150
     FM272000 15010G16KT P6SM SCT050 BKN090 PROB30 2720/2724 -SHRA=

USA.gov is the U.S. government's official web portal to all federal, state and local government web resources and services.